Time;durP1;ratioP1;P1;durP2;ratioP2;P2;SDS_P1;SDS_P2;PMS_P1;PMS_P2;Temp;Humidity;BMP_temperature;BMP_pressure;BME280_temperature;BME280_humidity;BME280_pressure;Samples;Min_cycle;Max_cycle;Signal;HPM_P1;HPM_P2
2022/05/20 00:00:58;;;;;;;12.88;8.15;;;;;;;;;;5050938;28;20027;-56
2022/05/20 00:03:24;;;;;;;14.07;8.00;;;;;;;;;;5044813;28;20028;-56
2022/05/20 00:05:49;;;;;;;13.00;8.23;;;;;;;;;;5046080;28;20079;-56
2022/05/20 00:08:15;;;;;;;15.00;9.07;;;;;;;;;;5048402;28;20500;-56
2022/05/20 00:10:41;;;;;;;14.32;9.35;;;;;;;;;;5050823;28;20039;-56
2022/05/20 00:13:07;;;;;;;13.38;8.52;;;;;;;;;;5051357;28;20059;-56
2022/05/20 00:15:33;;;;;;;12.60;8.75;;;;;;;;;;5049117;28;20393;-56
2022/05/20 00:17:59;;;;;;;13.35;9.02;;;;;;;;;;5045265;28;20021;-56
2022/05/20 00:20:26;;;;;;;13.23;8.43;;;;;;;;;;5053454;28;20021;-56
2022/05/20 00:22:52;;;;;;;15.63;8.90;;;;;;;;;;5047837;28;20372;-56
2022/05/20 00:28:04;;;;;;;14.68;9.30;;;;;;;;;;5050989;28;20029;-56
2022/05/20 00:30:29;;;;;;;13.30;8.55;;;;;;;;;;5052270;28;20025;-56
2022/05/20 00:32:55;;;;;;;14.75;8.65;;;;;;;;;;5051195;28;20024;-56
2022/05/20 00:35:21;;;;;;;15.55;9.35;;;;;;;;;;5050809;28;20020;-56
2022/05/20 00:37:47;;;;;;;14.32;9.27;;;;;;;;;;5045545;28;20116;-56
2022/05/20 00:40:16;;;;;;;19.85;9.85;;;;;;;;;;5038223;28;20025;-56
2022/05/20 00:42:42;;;;;;;23.37;10.13;;;;;;;;;;5043208;28;20060;-56
2022/05/20 00:45:08;;;;;;;17.50;10.18;;;;;;;;;;5044553;28;20037;-56
2022/05/20 00:47:34;;;;;;;12.70;9.35;;;;;;;;;;5046194;28;20399;-56
2022/05/20 00:50:04;;;;;;;17.52;9.43;;;;;;;;;;5047772;28;20040;-56
2022/05/20 00:52:33;;;;;;;15.18;9.15;;;;;;;;;;5046416;28;20055;-55
2022/05/20 00:55:02;;;;;;;18.23;9.27;;;;;;;;;;5047804;28;20056;-56
2022/05/20 00:57:33;;;;;;;13.05;9.02;;;;;;;;;;5045442;28;20028;-56
2022/05/20 01:00:08;;;;;;;16.67;9.65;;;;;;;;;;5046366;28;20032;-56
2022/05/20 01:02:34;;;;;;;16.75;9.25;;;;;;;;;;5050874;28;20032;-56
2022/05/20 01:05:03;;;;;;;14.50;8.75;;;;;;;;;;5046997;28;20029;-56
2022/05/20 01:07:31;;;;;;;11.87;9.37;;;;;;;;;;5043754;28;20030;-56
2022/05/20 01:09:57;;;;;;;13.60;9.00;;;;;;;;;;5045409;28;20396;-56
2022/05/20 01:12:24;;;;;;;14.90;8.70;;;;;;;;;;5048708;28;20032;-56
2022/05/20 01:14:51;;;;;;;15.02;9.20;;;;;;;;;;5046178;28;20036;-56
2022/05/20 01:17:17;;;;;;;12.93;8.85;;;;;;;;;;5048965;28;20021;-56
2022/05/20 01:19:47;;;;;;;12.18;8.55;;;;;;;;;;5045805;28;20154;-56
2022/05/20 01:22:25;;;;;;;17.40;8.88;;;;;;;;;;5048882;28;20087;-56
2022/05/20 01:24:51;;;;;;;11.07;8.10;;;;;;;;;;5049298;28;20029;-54
2022/05/20 01:27:16;;;;;;;15.68;9.57;;;;;;;;;;5047666;28;20021;-56
2022/05/20 01:29:41;;;;;;;16.70;9.18;;;;;;;;;;5052278;28;20112;-56
2022/05/20 01:32:07;;;;;;;10.80;8.07;;;;;;;;;;5051972;28;20055;-56
2022/05/20 01:34:33;;;;;;;15.75;8.43;;;;;;;;;;5048921;28;20463;-56
2022/05/20 01:36:59;;;;;;;13.77;9.20;;;;;;;;;;5050587;28;20496;-56
2022/05/20 01:39:24;;;;;;;12.20;8.07;;;;;;;;;;5044166;28;20025;-56
2022/05/20 01:42:01;;;;;;;17.17;9.10;;;;;;;;;;5045617;28;20402;-55
2022/05/20 01:44:37;;;;;;;16.40;8.57;;;;;;;;;;5045091;28;20044;-56
2022/05/20 01:47:21;;;;;;;15.10;8.57;;;;;;;;;;5051321;28;20017;-56
2022/05/20 01:49:56;;;;;;;13.02;7.90;;;;;;;;;;5051666;28;20107;-56
2022/05/20 01:52:30;;;;;;;10.90;8.25;;;;;;;;;;5050798;28;20025;-56
2022/05/20 01:55:27;;;;;;;14.32;7.95;;;;;;;;;;5048965;28;20099;-56
2022/05/20 01:58:29;;;;;;;11.02;8.38;;;;;;;;;;5048082;28;20033;-56
2022/05/20 02:00:59;;;;;;;11.23;7.72;;;;;;;;;;5046934;28;20032;-56
2022/05/20 02:03:38;;;;;;;12.38;7.05;;;;;;;;;;5049276;28;20056;-56
2022/05/20 02:06:29;;;;;;;11.50;7.60;;;;;;;;;;5053102;28;20107;-55
2022/05/20 02:08:55;;;;;;;12.85;7.95;;;;;;;;;;5043086;28;20044;-56
2022/05/20 02:11:26;;;;;;;13.68;7.75;;;;;;;;;;5054327;28;20477;-56
2022/05/20 02:13:59;;;;;;;13.95;7.57;;;;;;;;;;5051761;28;20025;-55
2022/05/20 02:16:30;;;;;;;12.43;7.18;;;;;;;;;;5051295;28;20063;-56
2022/05/20 02:19:19;;;;;;;9.85;7.05;;;;;;;;;;5048471;28;20087;-57
2022/05/20 02:21:54;;;;;;;11.20;7.20;;;;;;;;;;5051483;28;20310;-56
2022/05/20 02:24:25;;;;;;;11.77;6.60;;;;;;;;;;5046311;28;20483;-55
2022/05/20 02:26:54;;;;;;;9.55;6.90;;;;;;;;;;5057711;28;20036;-56
2022/05/20 02:29:27;;;;;;;12.88;7.63;;;;;;;;;;5057567;28;20427;-56
2022/05/20 02:32:16;;;;;;;9.10;6.78;;;;;;;;;;5050282;28;20056;-56
2022/05/20 02:34:42;;;;;;;9.73;6.85;;;;;;;;;;5048751;28;20044;-56
2022/05/20 02:37:26;;;;;;;9.85;6.57;;;;;;;;;;5044219;28;20031;-56
2022/05/20 02:39:53;;;;;;;8.90;6.40;;;;;;;;;;5041864;28;20034;-56
2022/05/20 02:42:19;;;;;;;12.23;6.80;;;;;;;;;;5045308;28;20048;-56
2022/05/20 02:44:45;;;;;;;12.30;6.68;;;;;;;;;;5050400;28;20098;-56
2022/05/20 02:47:11;;;;;;;13.60;6.45;;;;;;;;;;5050588;28;20033;-56
2022/05/20 02:49:36;;;;;;;9.65;6.28;;;;;;;;;;5046071;28;20092;-56
2022/05/20 02:52:03;;;;;;;11.50;6.65;;;;;;;;;;5048560;28;20028;-55
2022/05/20 02:54:28;;;;;;;11.38;6.40;;;;;;;;;;5049003;28;20051;-56
2022/05/20 02:56:54;;;;;;;8.45;6.20;;;;;;;;;;5051370;28;20488;-56
2022/05/20 03:04:47;;;;;;;8.90;5.85;;;;;;;;;;5046749;28;20035;-56
2022/05/20 03:07:16;;;;;;;9.20;6.25;;;;;;;;;;5048062;28;20021;-56
2022/05/20 03:09:41;;;;;;;8.13;5.88;;;;;;;;;;5048133;28;20094;-55
2022/05/20 03:12:07;;;;;;;10.07;6.40;;;;;;;;;;5052486;28;20498;-56
2022/05/20 03:14:33;;;;;;;9.25;6.05;;;;;;;;;;5058375;28;20457;-55
2022/05/20 03:16:59;;;;;;;12.27;6.13;;;;;;;;;;5053221;28;20025;-56
2022/05/20 03:19:29;;;;;;;9.02;5.60;;;;;;;;;;5043852;28;20021;-56
2022/05/20 03:21:54;;;;;;;9.35;6.70;;;;;;;;;;5052208;28;20418;-55
2022/05/20 03:24:20;;;;;;;8.85;6.70;;;;;;;;;;5044963;28;20241;-56
2022/05/20 03:26:46;;;;;;;9.77;5.82;;;;;;;;;;5054701;28;20487;-56
2022/05/20 03:29:12;;;;;;;8.27;6.30;;;;;;;;;;5043634;28;20040;-56
2022/05/20 03:31:39;;;;;;;11.05;6.25;;;;;;;;;;5047329;28;20029;-56
2022/05/20 03:34:05;;;;;;;9.82;5.97;;;;;;;;;;5049078;28;20043;-55
2022/05/20 03:36:36;;;;;;;10.68;6.43;;;;;;;;;;5042674;28;20028;-55
2022/05/20 03:39:03;;;;;;;9.00;5.63;;;;;;;;;;5045140;28;20032;-56
2022/05/20 03:41:29;;;;;;;8.25;6.28;;;;;;;;;;5047887;28;20036;-56
2022/05/20 03:43:55;;;;;;;9.75;6.22;;;;;;;;;;5048442;28;20487;-56
2022/05/20 03:46:21;;;;;;;10.00;5.93;;;;;;;;;;5048538;28;20027;-56
2022/05/20 03:48:46;;;;;;;10.77;6.35;;;;;;;;;;5047908;28;20506;-56
2022/05/20 03:51:13;;;;;;;8.50;7.00;;;;;;;;;;5046914;28;20086;-56
2022/05/20 03:53:40;;;;;;;10.30;8.13;;;;;;;;;;5050161;28;20021;-56
2022/05/20 03:56:06;;;;;;;13.30;7.55;;;;;;;;;;5047097;28;20156;-56
2022/05/20 03:58:31;;;;;;;11.48;7.50;;;;;;;;;;5045671;28;20079;-56
2022/05/20 04:03:43;;;;;;;11.48;7.63;;;;;;;;;;5048590;28;20047;-56
2022/05/20 04:06:08;;;;;;;11.60;8.00;;;;;;;;;;5048119;28;20025;-56
2022/05/20 04:08:34;;;;;;;10.82;7.97;;;;;;;;;;5043748;28;20036;-56
2022/05/20 04:11:00;;;;;;;11.65;8.43;;;;;;;;;;5049542;28;20023;-56
2022/05/20 04:13:26;;;;;;;12.43;8.68;;;;;;;;;;5056713;28;20020;-55
2022/05/20 04:15:54;;;;;;;12.75;8.27;;;;;;;;;;5048134;28;20379;-56
2022/05/20 04:18:19;;;;;;;15.45;8.70;;;;;;;;;;5046611;28;20407;-56
2022/05/20 04:20:45;;;;;;;11.80;9.25;;;;;;;;;;5052510;28;20088;-56
2022/05/20 04:23:11;;;;;;;14.02;8.90;;;;;;;;;;5048126;28;20032;-56
2022/05/20 04:25:36;;;;;;;12.57;9.13;;;;;;;;;;5047584;28;20108;-56
2022/05/20 04:28:01;;;;;;;17.73;9.68;;;;;;;;;;5049118;28;20045;-56
2022/05/20 04:30:27;;;;;;;12.73;10.18;;;;;;;;;;5055247;28;20177;-56
2022/05/20 04:32:52;;;;;;;15.73;9.88;;;;;;;;;;5048263;28;20056;-56
2022/05/20 04:35:18;;;;;;;24.63;12.75;;;;;;;;;;5046232;28;20037;-55
2022/05/20 04:37:43;;;;;;;17.83;10.30;;;;;;;;;;5039419;28;20048;-56
2022/05/20 04:40:09;;;;;;;13.52;10.25;;;;;;;;;;5041123;28;20419;-55
2022/05/20 04:48:06;;;;;;;16.58;10.05;;;;;;;;;;5045406;28;20110;-56
2022/05/20 04:50:32;;;;;;;15.02;10.60;;;;;;;;;;5049428;28;20029;-56
2022/05/20 04:52:57;;;;;;;15.43;9.70;;;;;;;;;;5045281;28;20457;-56
2022/05/20 04:55:22;;;;;;;16.45;9.73;;;;;;;;;;5042072;28;20421;-55
2022/05/20 04:57:51;;;;;;;17.98;10.50;;;;;;;;;;5047664;28;20071;-56
2022/05/20 05:00:21;;;;;;;14.70;10.75;;;;;;;;;;5050944;28;20021;-56
2022/05/20 05:02:47;;;;;;;;;;;;;;;;;;5050086;28;20029;-55
2022/05/20 05:05:15;;;;;;;15.63;10.57;;;;;;;;;;5050224;28;19920;-55
2022/05/20 05:07:43;;;;;;;20.07;13.30;;;;;;;;;;5044763;28;20029;-56
2022/05/20 05:10:11;;;;;;;15.85;10.27;;;;;;;;;;5052167;28;20502;-56
2022/05/20 05:12:36;;;;;;;16.60;10.00;;;;;;;;;;5048804;28;20159;-56
2022/05/20 05:15:03;;;;;;;15.40;9.88;;;;;;;;;;5037659;28;20107;-56
2022/05/20 05:20:23;;;;;;;14.52;9.55;;;;;;;;;;5046825;28;20032;-56
2022/05/20 05:22:50;;;;;;;17.15;9.80;;;;;;;;;;5042843;28;20025;-56
2022/05/20 05:25:16;;;;;;;15.27;9.85;;;;;;;;;;5054079;28;20111;-56
2022/05/20 05:27:41;;;;;;;11.73;8.07;;;;;;;;;;5048295;28;20035;-54
2022/05/20 05:30:09;;;;;;;14.48;7.25;;;;;;;;;;5046833;28;20032;-56
2022/05/20 05:32:35;;;;;;;12.88;6.68;;;;;;;;;;5042088;28;20024;-56
2022/05/20 05:35:02;;;;;;;12.35;7.35;;;;;;;;;;5037340;28;20022;-56
2022/05/20 05:37:28;;;;;;;8.18;6.10;;;;;;;;;;5044552;28;20029;-56
2022/05/20 05:39:53;;;;;;;9.00;5.75;;;;;;;;;;5042787;28;20542;-56
2022/05/20 05:42:20;;;;;;;16.55;6.13;;;;;;;;;;5030481;28;20709;-56
2022/05/20 05:44:46;;;;;;;11.13;5.97;;;;;;;;;;5041258;28;20480;-56
2022/05/20 05:47:11;;;;;;;7.15;5.80;;;;;;;;;;5038713;28;20028;-56
2022/05/20 05:49:37;;;;;;;9.68;6.10;;;;;;;;;;5041271;28;20558;-55
2022/05/20 05:52:03;;;;;;;10.15;6.28;;;;;;;;;;5045197;28;20040;-54
2022/05/20 05:54:28;;;;;;;11.85;6.10;;;;;;;;;;5045448;28;20029;-56
2022/05/20 05:56:53;;;;;;;11.30;5.90;;;;;;;;;;5038071;28;20045;-56
2022/05/20 05:59:19;;;;;;;14.13;6.80;;;;;;;;;;5039892;28;20032;-55
2022/05/20 06:01:44;;;;;;;7.97;5.97;;;;;;;;;;5043142;28;20492;-56
2022/05/20 06:04:10;;;;;;;8.35;5.80;;;;;;;;;;5042880;28;20076;-56
2022/05/20 06:06:35;;;;;;;8.68;6.63;;;;;;;;;;5043632;28;20031;-57
2022/05/20 06:09:01;;;;;;;11.10;5.75;;;;;;;;;;5042194;28;20030;-56
2022/05/20 06:11:26;;;;;;;8.93;5.60;;;;;;;;;;5045817;28;20028;-56
2022/05/20 06:13:52;;;;;;;11.65;5.90;;;;;;;;;;5047634;28;20116;-56
2022/05/20 06:16:19;;;;;;;9.60;6.28;;;;;;;;;;5045900;28;20116;-56
2022/05/20 06:18:44;;;;;;;11.95;6.25;;;;;;;;;;5051508;28;20029;-56
2022/05/20 06:21:09;;;;;;;7.88;5.90;;;;;;;;;;5048278;28;20031;-55
2022/05/20 06:23:35;;;;;;;10.02;5.68;;;;;;;;;;5055440;28;20051;-56
2022/05/20 06:26:00;;;;;;;13.10;6.80;;;;;;;;;;5045268;28;20021;-56
2022/05/20 06:28:26;;;;;;;8.85;5.97;;;;;;;;;;5046351;28;20035;-56
2022/05/20 06:30:51;;;;;;;10.57;5.65;;;;;;;;;;5040476;28;20029;-54
2022/05/20 06:33:17;;;;;;;10.85;5.93;;;;;;;;;;5043237;28;20029;-55
2022/05/20 06:41:10;;;;;;;9.00;6.03;;;;;;;;;;5038237;28;20135;-56
2022/05/20 06:43:36;;;;;;;10.10;5.80;;;;;;;;;;5042854;28;20128;-56
2022/05/20 06:46:03;;;;;;;11.23;5.60;;;;;;;;;;5043048;28;20403;-56
2022/05/20 06:48:50;;;;;;;9.48;6.30;;;;;;;;;;5049277;28;20526;-56
2022/05/20 06:51:19;;;;;;;9.25;5.47;;;;;;;;;;5046657;28;20032;-56
2022/05/20 06:53:45;;;;;;;10.25;5.70;;;;;;;;;;5045897;28;20060;-56
2022/05/20 06:56:12;;;;;;;7.80;5.50;;;;;;;;;;5053726;28;20535;-55
2022/05/20 06:58:38;;;;;;;7.65;5.20;;;;;;;;;;5053177;28;20533;-55
2022/05/20 07:01:04;;;;;;;8.40;5.30;;;;;;;;;;5043125;28;20025;-55
2022/05/20 07:03:30;;;;;;;9.60;5.75;;;;;;;;;;5049238;28;20071;-56
2022/05/20 07:05:56;;;;;;;9.43;5.30;;;;;;;;;;5052381;28;20026;-55
2022/05/20 07:08:22;;;;;;;10.25;6.10;;;;;;;;;;5049038;28;20521;-56
2022/05/20 07:10:48;;;;;;;8.70;5.47;;;;;;;;;;5046030;28;20063;-55
2022/05/20 07:13:13;;;;;;;13.60;5.63;;;;;;;;;;5045691;28;20052;-55
2022/05/20 07:15:39;;;;;;;6.15;5.40;;;;;;;;;;5043449;28;20029;-55
2022/05/20 07:18:04;;;;;;;10.13;6.00;;;;;;;;;;5054712;28;20031;-55
2022/05/20 07:20:30;;;;;;;10.88;6.22;;;;;;;;;;5050504;28;20031;-56
2022/05/20 07:22:56;;;;;;;10.07;5.60;;;;;;;;;;5042621;28;20443;-56
2022/05/20 07:25:21;;;;;;;9.25;6.18;;;;;;;;;;5047675;28;20033;-55
2022/05/20 07:27:47;;;;;;;9.23;5.72;;;;;;;;;;5045813;28;20049;-55
2022/05/20 07:30:15;;;;;;;11.88;5.72;;;;;;;;;;5038015;28;20029;-56
2022/05/20 07:32:40;;;;;;;11.05;6.45;;;;;;;;;;5043939;28;20107;-56
2022/05/20 07:35:06;;;;;;;9.32;5.70;;;;;;;;;;5039915;28;20108;-56
2022/05/20 07:37:32;;;;;;;9.60;5.68;;;;;;;;;;5041685;28;20550;-56
2022/05/20 07:39:58;;;;;;;14.45;7.15;;;;;;;;;;5040191;28;20085;-57
2022/05/20 07:42:24;;;;;;;7.78;5.45;;;;;;;;;;5037946;28;20033;-57
2022/05/20 07:44:50;;;;;;;8.32;5.70;;;;;;;;;;5045289;28;20033;-56
2022/05/20 07:47:16;;;;;;;9.45;5.60;;;;;;;;;;5046831;28;20353;-56
2022/05/20 07:49:41;;;;;;;11.75;5.65;;;;;;;;;;5043129;28;20048;-56
2022/05/20 07:52:09;;;;;;;9.10;5.13;;;;;;;;;;5045034;28;20035;-57
2022/05/20 07:54:40;;;;;;;6.10;5.50;;;;;;;;;;5041486;28;20013;-55
2022/05/20 07:57:12;;;;;;;9.18;5.57;;;;;;;;;;5043260;28;20028;-56
2022/05/20 07:59:46;;;;;;;9.88;6.18;;;;;;;;;;5043436;28;20067;-56
2022/05/20 08:02:15;;;;;;;8.40;5.60;;;;;;;;;;5044958;28;20049;-57
2022/05/20 08:04:55;;;;;;;8.35;6.03;;;;;;;;;;5046451;28;20028;-56
2022/05/20 08:07:31;;;;;;;9.82;6.20;;;;;;;;;;5043106;28;20024;-57
2022/05/20 08:09:58;;;;;;;9.05;5.65;;;;;;;;;;5039464;28;20056;-56
2022/05/20 08:12:24;;;;;;;10.63;6.00;;;;;;;;;;5041673;28;20594;-57
2022/05/20 08:14:50;;;;;;;7.28;5.43;;;;;;;;;;5038798;28;20029;-57
2022/05/20 08:17:20;;;;;;;10.23;5.90;;;;;;;;;;5044930;28;20450;-57
2022/05/20 08:19:46;;;;;;;9.23;5.90;;;;;;;;;;5041940;28;20446;-56
2022/05/20 08:22:11;;;;;;;7.90;5.95;;;;;;;;;;5042591;28;20238;-57
2022/05/20 08:24:36;;;;;;;8.48;6.20;;;;;;;;;;5046466;28;20025;-57
2022/05/20 08:27:02;;;;;;;9.63;6.38;;;;;;;;;;5048262;28;20025;-55
2022/05/20 08:29:30;;;;;;;10.95;6.15;;;;;;;;;;5041746;28;20032;-57
2022/05/20 08:31:56;;;;;;;10.57;6.28;;;;;;;;;;5044890;28;20021;-57
2022/05/20 08:34:21;;;;;;;7.28;6.00;;;;;;;;;;5041828;28;20424;-58
2022/05/20 08:36:47;;;;;;;9.00;6.05;;;;;;;;;;5047350;28;20063;-57
2022/05/20 08:39:12;;;;;;;12.27;6.43;;;;;;;;;;5046213;28;20453;-57
2022/05/20 08:41:57;;;;;;;11.93;5.85;;;;;;;;;;5045892;28;20072;-58
2022/05/20 08:44:24;;;;;;;9.18;6.45;;;;;;;;;;5046016;28;20024;-55
2022/05/20 08:46:50;;;;;;;9.48;6.40;;;;;;;;;;5047147;28;20020;-55
2022/05/20 08:49:21;;;;;;;8.43;6.05;;;;;;;;;;5045204;28;20025;-56
2022/05/20 08:51:52;;;;;;;9.70;6.13;;;;;;;;;;5048216;28;20435;-56
2022/05/20 08:54:18;;;;;;;9.30;5.88;;;;;;;;;;5045756;28;20030;-57
2022/05/20 08:56:45;;;;;;;10.07;6.10;;;;;;;;;;5048228;28;20032;-57
2022/05/20 08:59:17;;;;;;;11.05;6.20;;;;;;;;;;5045817;28;20479;-56
2022/05/20 09:01:50;;;;;;;9.93;5.95;;;;;;;;;;5042676;28;20037;-56
2022/05/20 09:04:19;;;;;;;8.27;6.00;;;;;;;;;;5040244;28;20614;-56
2022/05/20 09:07:08;;;;;;;10.63;6.35;;;;;;;;;;5048819;28;20120;-56
2022/05/20 09:09:39;;;;;;;;;;;;;;;;;;5046344;28;20068;-54
2022/05/20 09:12:06;;;;;;;13.68;6.32;;;;;;;;;;5043641;28;19917;-56
2022/05/20 09:17:22;;;;;;;11.63;6.10;;;;;;;;;;5043603;28;20589;-56
2022/05/20 09:20:05;;;;;;;9.93;6.57;;;;;;;;;;5044717;28;20667;-56
2022/05/20 09:22:38;;;;;;;11.27;6.22;;;;;;;;;;5042449;28;20071;-56
2022/05/20 09:25:26;;;;;;;13.65;6.28;;;;;;;;;;5044136;28;20024;-56
2022/05/20 09:27:57;;;;;;;15.77;6.22;;;;;;;;;;5043295;28;20025;-56
2022/05/20 09:30:23;;;;;;;14.05;6.97;;;;;;;;;;5039514;28;20037;-57
2022/05/20 09:33:12;;;;;;;12.25;6.32;;;;;;;;;;5042023;28;20052;-57
2022/05/20 09:35:37;;;;;;;10.35;6.32;;;;;;;;;;5038130;28;20158;-57
2022/05/20 09:38:25;;;;;;;11.55;6.05;;;;;;;;;;5042154;28;20100;-57
2022/05/20 09:40:51;;;;;;;9.90;6.55;;;;;;;;;;5039757;28;20547;-57
2022/05/20 09:43:28;;;;;;;12.15;5.85;;;;;;;;;;5041156;28;20120;-57
2022/05/20 09:45:55;;;;;;;10.90;5.85;;;;;;;;;;5043397;28;20053;-58
2022/05/20 09:48:43;;;;;;;12.35;6.07;;;;;;;;;;5043929;28;20239;-57
2022/05/20 09:51:16;;;;;;;8.47;6.13;;;;;;;;;;5045685;28;20219;-57
2022/05/20 09:54:09;;;;;;;10.98;6.65;;;;;;;;;;5045417;28;20106;-57
2022/05/20 09:56:44;;;;;;;12.23;6.40;;;;;;;;;;5049211;28;20016;-57
2022/05/20 09:59:27;;;;;;;11.55;6.60;;;;;;;;;;5050821;28;20147;-57
2022/05/20 10:01:58;;;;;;;11.07;6.13;;;;;;;;;;5050643;28;20123;-57
2022/05/20 10:04:34;;;;;;;10.32;6.22;;;;;;;;;;5051928;28;20063;-57
2022/05/20 10:07:01;;;;;;;10.40;5.90;;;;;;;;;;5052506;28;20459;-57
2022/05/20 10:09:33;;;;;;;10.93;5.93;;;;;;;;;;5044799;28;20028;-57
2022/05/20 10:12:01;;;;;;;8.98;6.00;;;;;;;;;;5046967;28;20037;-58
2022/05/20 10:14:52;;;;;;;9.40;5.82;;;;;;;;;;5055019;28;20065;-57
2022/05/20 10:17:44;;;;;;;11.07;6.00;;;;;;;;;;5050106;28;20475;-57
2022/05/20 10:20:28;;;;;;;10.02;6.40;;;;;;;;;;5040321;28;20037;-57
2022/05/20 10:23:03;;;;;;;9.77;6.25;;;;;;;;;;5038797;28;20083;-57
2022/05/20 10:25:47;;;;;;;11.13;6.38;;;;;;;;;;5039297;28;20128;-58
2022/05/20 10:28:12;;;;;;;16.05;6.38;;;;;;;;;;5044634;28;20463;-57
2022/05/20 10:33:37;;;;;;;8.05;5.82;;;;;;;;;;5042021;28;20056;-58
2022/05/20 10:36:08;;;;;;;;;;;;;;;;;;5045289;28;20060;-58
2022/05/20 10:38:48;;;;;;;8.23;6.00;;;;;;;;;;5049940;28;19912;-57
2022/05/20 10:41:46;;;;;;;12.50;6.20;;;;;;;;;;5047487;28;20112;-57
2022/05/20 10:50:24;;;;;;;8.95;4.72;;;;;;;;;;5050940;28;20131;-58
2022/05/20 10:53:04;;;;;;;10.93;5.63;;;;;;;;;;5046928;28;20029;-58
2022/05/20 10:55:52;;;;;;;9.40;5.30;;;;;;;;;;5045311;28;20058;-58
2022/05/20 10:58:21;;;;;;;11.35;5.25;;;;;;;;;;5046244;28;20383;-58
2022/05/20 11:00:50;;;;;;;10.15;6.13;;;;;;;;;;5051950;28;20501;-58
2022/05/20 11:04:03;;;;;;;11.98;5.32;;;;;;;;;;5045372;28;20581;-58
2022/05/20 11:07:08;;;;;;;12.00;5.65;;;;;;;;;;5036315;28;20102;-57
2022/05/20 11:09:56;;;;;;;10.50;6.07;;;;;;;;;;5043974;28;20036;-57
2022/05/20 11:13:03;;;;;;;8.52;5.70;;;;;;;;;;5045438;28;20135;-57
2022/05/20 11:15:40;;;;;;;12.88;5.30;;;;;;;;;;5033249;28;20049;-58
2022/05/20 11:18:36;;;;;;;12.70;5.53;;;;;;;;;;5036522;28;20025;-57
2022/05/20 11:21:04;;;;;;;6.28;4.85;;;;;;;;;;5052282;28;20059;-58
2022/05/20 11:23:44;;;;;;;11.63;6.13;;;;;;;;;;5050857;28;20100;-58
2022/05/20 11:26:21;;;;;;;11.80;5.47;;;;;;;;;;5043067;28;20027;-58
2022/05/20 11:29:21;;;;;;;10.10;5.35;;;;;;;;;;5044563;28;20104;-59
2022/05/20 11:31:49;;;;;;;11.38;4.80;;;;;;;;;;5047003;28;20016;-58
2022/05/20 11:34:52;;;;;;;9.02;5.63;;;;;;;;;;5047521;28;20089;-57
2022/05/20 11:37:39;;;;;;;10.57;5.90;;;;;;;;;;5043666;28;20095;-58
2022/05/20 11:40:27;;;;;;;8.05;5.43;;;;;;;;;;5045581;28;20048;-58
2022/05/20 11:43:04;;;;;;;9.35;4.97;;;;;;;;;;5039405;28;20056;-57
2022/05/20 11:46:03;;;;;;;8.80;5.60;;;;;;;;;;5043943;28;20056;-57
2022/05/20 11:48:41;;;;;;;9.88;5.10;;;;;;;;;;5037956;28;20498;-57
2022/05/20 11:51:51;;;;;;;10.52;5.60;;;;;;;;;;5045673;28;20491;-58
2022/05/20 11:54:29;;;;;;;6.82;5.05;;;;;;;;;;5045021;28;20142;-58
2022/05/20 11:57:04;;;;;;;11.65;5.28;;;;;;;;;;5046010;28;20028;-58
2022/05/20 11:59:36;;;;;;;11.52;5.00;;;;;;;;;;5047536;28;20028;-58
2022/05/20 12:02:07;;;;;;;8.90;5.00;;;;;;;;;;5045899;28;20211;-58
2022/05/20 12:04:35;;;;;;;7.75;4.78;;;;;;;;;;5044270;28;20376;-60
2022/05/20 12:07:07;;;;;;;8.75;5.32;;;;;;;;;;5044204;28;20063;-58
2022/05/20 12:09:55;;;;;;;11.10;5.07;;;;;;;;;;5043728;28;20362;-58
2022/05/20 12:12:21;;;;;;;;;;;;;;;;;;5042888;28;20479;-58
2022/05/20 12:15:08;;;;;;;9.77;4.80;;;;;;;;;;5042882;28;19916;-58
2022/05/20 12:17:36;;;;;;;11.65;5.82;;;;;;;;;;5042994;28;20514;-58
2022/05/20 12:25:52;;;;;;;10.00;4.65;;;;;;;;;;5040575;28;20067;-59
2022/05/20 12:28:20;;;;;;;8.53;4.70;;;;;;;;;;5038122;28;20128;-58
2022/05/20 12:31:02;;;;;;;;;;;;;;;;;;5042037;28;20093;-59
2022/05/20 12:33:59;;;;;;;8.55;4.78;;;;;;;;;;5041041;28;19916;-58
2022/05/20 12:36:27;;;;;;;13.77;4.70;;;;;;;;;;5041991;28;20035;-59
2022/05/20 12:39:16;;;;;;;7.85;4.95;;;;;;;;;;5040014;28;20029;-59
2022/05/20 12:41:49;;;;;;;7.45;4.78;;;;;;;;;;5042820;28;20033;-58
2022/05/20 12:44:17;;;;;;;7.85;4.50;;;;;;;;;;5043256;28;20041;-58
2022/05/20 12:47:01;;;;;;;;;;;;;;;;;;5041813;28;20033;-58
2022/05/20 12:49:37;;;;;;;8.95;4.45;;;;;;;;;;5037872;28;20434;-58
2022/05/20 12:52:29;;;;;;;8.45;4.35;;;;;;;;;;5042629;28;20036;-58
2022/05/20 12:55:04;;;;;;;8.95;4.22;;;;;;;;;;5042320;28;20036;-58
2022/05/20 12:57:34;;;;;;;6.95;4.30;;;;;;;;;;5040622;28;20026;-58
2022/05/20 13:00:09;;;;;;;12.85;4.70;;;;;;;;;;5044065;28;20419;-58
2022/05/20 13:02:44;;;;;;;9.30;4.07;;;;;;;;;;5040524;28;20051;-59
2022/05/20 13:05:24;;;;;;;8.35;4.32;;;;;;;;;;5042869;28;20025;-58
2022/05/20 13:07:51;;;;;;;8.13;3.65;;;;;;;;;;5046155;28;20055;-58
2022/05/20 13:10:28;;;;;;;9.15;4.40;;;;;;;;;;5049427;28;20033;-59
2022/05/20 13:12:58;;;;;;;10.38;4.32;;;;;;;;;;5045225;28;20091;-58
2022/05/20 13:15:23;;;;;;;9.32;4.60;;;;;;;;;;5048833;28;20473;-58
2022/05/20 13:17:58;;;;;;;8.18;4.32;;;;;;;;;;5041956;28;20365;-59
2022/05/20 13:20:26;;;;;;;8.13;4.20;;;;;;;;;;5042761;28;20029;-59
2022/05/20 13:22:51;;;;;;;;;;;;;;;;;;5040739;28;20092;-56
2022/05/20 13:25:18;;;;;;;8.05;4.60;;;;;;;;;;5045394;28;20215;-56
2022/05/20 13:27:48;;;;;;;7.07;4.32;;;;;;;;;;5044357;28;20032;-57
2022/05/20 13:30:20;;;;;;;8.57;4.00;;;;;;;;;;5046215;28;20396;-56
2022/05/20 13:32:45;;;;;;;10.30;4.55;;;;;;;;;;5044684;28;20032;-57
2022/05/20 13:35:11;;;;;;;14.02;4.70;;;;;;;;;;5045180;28;20483;-57
2022/05/20 13:37:41;;;;;;;8.02;4.60;;;;;;;;;;5043509;28;20079;-58
2022/05/20 13:40:12;;;;;;;6.47;4.43;;;;;;;;;;5043339;28;20041;-58
2022/05/20 13:42:43;;;;;;;10.73;4.75;;;;;;;;;;5045918;28;20046;-59
2022/05/20 13:45:12;;;;;;;7.55;4.38;;;;;;;;;;5047346;28;20376;-58
2022/05/20 13:50:24;;;;;;;11.50;4.45;;;;;;;;;;5050149;28;20048;-58
2022/05/20 13:52:50;;;;;;;10.10;4.45;;;;;;;;;;5046644;28;20450;-58
2022/05/20 13:55:17;;;;;;;9.20;4.60;;;;;;;;;;5045568;28;20028;-58
2022/05/20 13:57:46;;;;;;;9.80;4.78;;;;;;;;;;5046045;28;20123;-58
2022/05/20 14:00:29;;;;;;;8.48;4.72;;;;;;;;;;5048090;28;20174;-58
2022/05/20 14:03:03;;;;;;;11.88;5.30;;;;;;;;;;5048386;28;20052;-58
2022/05/20 14:05:36;;;;;;;9.15;5.00;;;;;;;;;;5048177;28;20112;-58
2022/05/20 14:08:03;;;;;;;10.70;4.85;;;;;;;;;;5045377;28;20026;-59
2022/05/20 14:10:28;;;;;;;10.63;4.90;;;;;;;;;;5045842;28;20060;-59
2022/05/20 14:13:04;;;;;;;4.72;4.03;;;;;;;;;;5047700;28;20056;-59
2022/05/20 14:15:45;;;;;;;11.13;4.75;;;;;;;;;;5047392;28;20025;-58
2022/05/20 14:18:32;;;;;;;10.68;4.30;;;;;;;;;;5041625;28;20025;-58
2022/05/20 14:21:11;;;;;;;9.50;4.70;;;;;;;;;;5047095;28;20025;-58
2022/05/20 14:23:43;;;;;;;8.77;4.55;;;;;;;;;;5049060;28;20140;-59
2022/05/20 14:26:26;;;;;;;7.40;4.57;;;;;;;;;;5049594;28;20673;-59
2022/05/20 14:28:57;;;;;;;10.15;4.72;;;;;;;;;;5041692;28;20072;-58
2022/05/20 14:31:55;;;;;;;8.27;4.40;;;;;;;;;;5043175;28;20028;-59
2022/05/20 14:34:31;;;;;;;9.38;5.20;;;;;;;;;;5050039;28;20033;-58
2022/05/20 14:37:02;;;;;;;7.53;4.22;;;;;;;;;;5047000;28;20100;-59
2022/05/20 14:39:29;;;;;;;8.02;4.78;;;;;;;;;;5046247;28;20029;-59
2022/05/20 14:41:58;;;;;;;7.85;4.93;;;;;;;;;;5049555;28;20055;-59
2022/05/20 14:44:24;;;;;;;10.13;4.35;;;;;;;;;;5046205;28;20495;-59
2022/05/20 14:47:14;;;;;;;8.32;4.30;;;;;;;;;;5047060;28;20020;-57
2022/05/20 14:49:51;;;;;;;11.23;4.10;;;;;;;;;;5044965;28;20034;-58
2022/05/20 14:52:43;;;;;;;10.48;4.15;;;;;;;;;;5050774;28;20028;-58
2022/05/20 14:55:15;;;;;;;6.80;3.58;;;;;;;;;;5046641;28;20021;-57
2022/05/20 14:57:40;;;;;;;9.45;3.80;;;;;;;;;;5044516;28;20044;-57
2022/05/20 15:00:29;;;;;;;10.52;4.47;;;;;;;;;;5041662;28;20111;-57
2022/05/20 15:02:55;;;;;;;7.05;3.50;;;;;;;;;;5047124;28;20029;-56
2022/05/20 15:05:24;;;;;;;7.45;3.33;;;;;;;;;;5042474;28;20059;-58
2022/05/20 15:07:59;;;;;;;10.02;3.80;;;;;;;;;;5046949;28;20052;-57
2022/05/20 15:10:25;;;;;;;11.23;3.58;;;;;;;;;;5057551;28;20032;-57
2022/05/20 15:12:51;;;;;;;10.60;3.75;;;;;;;;;;5052292;28;20025;-58
2022/05/20 15:15:18;;;;;;;8.90;3.97;;;;;;;;;;5053198;28;20416;-58
2022/05/20 15:18:05;;;;;;;12.73;4.03;;;;;;;;;;5054938;28;20040;-57
2022/05/20 15:20:44;;;;;;;9.60;4.22;;;;;;;;;;5048069;28;20025;-56
2022/05/20 15:23:40;;;;;;;7.13;4.65;;;;;;;;;;5040447;28;20063;-58
2022/05/20 15:26:12;;;;;;;10.20;4.38;;;;;;;;;;5042276;28;20052;-58
2022/05/20 15:28:53;;;;;;;12.55;4.65;;;;;;;;;;5044502;28;20042;-57
2022/05/20 15:37:07;;;;;;;15.05;5.90;;;;;;;;;;5044576;28;20289;-57
2022/05/20 15:39:39;;;;;;;11.73;4.78;;;;;;;;;;5045164;28;20031;-57
2022/05/20 15:42:05;;;;;;;11.73;4.82;;;;;;;;;;5049941;28;20344;-57
2022/05/20 15:44:31;;;;;;;8.75;4.80;;;;;;;;;;5046724;28;20025;-57
2022/05/20 15:46:58;;;;;;;9.63;5.15;;;;;;;;;;5048553;28;20119;-57
2022/05/20 15:49:24;;;;;;;12.10;5.15;;;;;;;;;;5052761;28;20027;-58
2022/05/20 15:51:49;;;;;;;11.52;5.25;;;;;;;;;;5052398;28;20111;-58